createdAt,value
2019-06-07T00:00:45.207Z,20.05
2019-06-07T00:03:46.933Z,19.00
2019-06-07T00:06:48.254Z,18.82
2019-06-07T00:09:50.137Z,19.17
2019-06-07T00:12:51.423Z,18.42
2019-06-07T00:15:53.497Z,17.70
2019-06-07T00:18:54.734Z,23.67
2019-06-07T00:25:00.186Z,20.77
2019-06-07T00:28:01.405Z,29.10
2019-06-07T00:31:02.927Z,21.80
2019-06-07T00:34:04.269Z,20.77
2019-06-07T00:37:07.075Z,21.85
2019-06-07T00:40:17.373Z,21.57
2019-06-07T00:43:16.889Z,18.98
2019-06-07T00:46:18.839Z,20.95
2019-06-07T00:49:36.111Z,23.90
2019-06-07T00:53:11.695Z,19.80
2019-06-07T00:55:28.614Z,22.20
2019-06-07T00:58:30.751Z,22.35
2019-06-07T01:01:31.973Z,20.35
2019-06-07T01:04:33.340Z,20.95
2019-06-07T01:07:34.761Z,29.57
2019-06-07T01:10:53.022Z,26.33
2019-06-07T01:13:39.510Z,30.25
2019-06-07T01:16:56.327Z,35.13
2019-06-07T01:19:43.817Z,39.90
2019-06-07T01:22:45.168Z,39.30
2019-06-07T01:25:46.538Z,38.38
2019-06-07T01:28:48.316Z,24.35
2019-06-07T01:31:49.693Z,24.47
2019-06-07T01:34:51.054Z,27.95
2019-06-07T01:37:52.338Z,30.77
2019-06-07T01:40:53.594Z,26.95
2019-06-07T01:43:54.955Z,32.65
2019-06-07T01:46:56.194Z,39.95
2019-06-07T01:49:57.468Z,38.55
2019-06-07T01:52:58.698Z,26.95
2019-06-07T01:56:00.538Z,32.67
2019-06-07T01:59:01.864Z,27.00
2019-06-07T02:02:03.860Z,30.57
2019-06-07T02:05:07.410Z,36.95
2019-06-07T02:08:08.676Z,37.95
2019-06-07T02:11:10.057Z,45.88
2019-06-07T02:14:11.422Z,45.33
2019-06-07T02:17:12.656Z,48.75
2019-06-07T02:20:14.564Z,50.17
2019-06-07T02:23:15.870Z,50.12
2019-06-07T02:26:17.265Z,47.13
2019-06-07T02:29:18.609Z,36.25
2019-06-07T02:32:21.577Z,36.58
2019-06-07T02:35:26.403Z,38.02
2019-06-07T02:38:29.712Z,39.20
2019-06-07T02:41:35.941Z,38.13
2019-06-07T02:44:38.544Z,36.53
2019-06-07T02:47:38.070Z,33.65
2019-06-07T02:50:39.080Z,35.17
2019-06-07T02:53:40.581Z,44.03
2019-06-07T02:56:56.096Z,29.07
2019-06-07T03:00:05.775Z,29.20
2019-06-07T03:02:48.318Z,33.65
2019-06-07T03:05:49.564Z,34.00
2019-06-07T03:08:51.742Z,31.73
2019-06-07T03:12:14.725Z,25.82
2019-06-07T03:15:32.707Z,29.65
2019-06-07T03:18:41.622Z,34.10
2019-06-07T03:21:42.920Z,35.23
2019-06-07T03:24:44.454Z,31.50
2019-06-07T03:27:49.905Z,30.40
2019-06-07T03:31:01.683Z,31.00
2019-06-07T03:33:53.554Z,32.85
2019-06-07T03:36:54.793Z,29.15
2019-06-07T03:39:56.099Z,31.40
2019-06-07T03:42:57.335Z,29.48
2019-06-07T03:45:58.653Z,24.77
2019-06-07T03:48:59.876Z,26.33
2019-06-07T03:52:01.508Z,25.70
2019-06-07T03:55:04.658Z,26.25
2019-06-07T04:01:09.079Z,24.87
2019-06-07T04:04:10.762Z,24.50
2019-06-07T04:07:12.010Z,22.42
2019-06-07T04:10:13.586Z,20.77
2019-06-07T04:13:15.405Z,21.23
2019-06-07T04:16:16.698Z,20.82
2019-06-07T04:19:18.064Z,21.30
2019-06-07T04:22:19.366Z,19.48
2019-06-07T04:25:20.610Z,18.90
2019-06-07T04:28:22.306Z,18.92
2019-06-07T04:31:23.650Z,17.35
2019-06-07T04:34:25.268Z,17.50
2019-06-07T04:37:28.254Z,17.25
2019-06-07T04:40:39.067Z,17.37
2019-06-07T04:43:41.159Z,17.30
2019-06-07T04:46:45.846Z,16.60
2019-06-07T04:49:47.483Z,16.42
2019-06-07T04:52:49.125Z,15.83
2019-06-07T04:55:50.374Z,16.07
2019-06-07T04:58:51.633Z,15.32
2019-06-07T05:01:52.981Z,15.30
2019-06-07T05:04:54.242Z,14.25
2019-06-07T05:07:55.864Z,14.00
2019-06-07T05:10:57.485Z,13.60
2019-06-07T05:13:58.711Z,14.05
2019-06-07T05:16:59.981Z,13.60
2019-06-07T05:20:01.735Z,12.95
2019-06-07T05:23:03.046Z,13.18
2019-06-07T05:26:04.290Z,11.88
2019-06-07T05:29:05.565Z,12.55
2019-06-07T05:32:07.704Z,11.60
2019-06-07T05:35:11.091Z,12.73
2019-06-07T05:38:12.420Z,12.82
2019-06-07T05:41:13.795Z,12.70
2019-06-07T05:44:15.303Z,11.85
2019-06-07T05:47:16.635Z,11.83
2019-06-07T05:50:38.391Z,11.03
2019-06-07T05:53:21.151Z,11.55
2019-06-07T05:56:22.510Z,10.65
2019-06-07T05:59:23.777Z,10.35
2019-06-07T06:02:25.226Z,10.10
2019-06-07T06:05:34.570Z,10.08
2019-06-07T06:08:30.151Z,10.25
2019-06-07T06:11:47.096Z,10.43
2019-06-07T06:14:35.369Z,9.73
2019-06-07T06:17:42.676Z,10.00
2019-06-07T06:21:05.331Z,10.20
2019-06-07T06:23:47.599Z,10.25
2019-06-07T06:26:54.085Z,10.60
2019-06-07T06:29:52.428Z,9.20
2019-06-07T06:32:58.108Z,9.55
2019-06-07T06:35:56.754Z,9.53
2019-06-07T06:38:58.296Z,9.30
2019-06-07T06:42:03.740Z,8.75
2019-06-07T06:45:07.518Z,9.23
2019-06-07T06:48:08.814Z,8.38
2019-06-07T06:51:10.162Z,8.83
2019-06-07T06:54:11.440Z,8.03
2019-06-07T06:57:19.504Z,8.30
2019-06-07T07:00:16.475Z,7.65
2019-06-07T07:06:26.402Z,7.20
2019-06-07T07:09:25.130Z,6.65
2019-06-07T07:12:26.540Z,7.30
2019-06-07T07:15:27.875Z,7.10
2019-06-07T07:18:29.164Z,7.35
2019-06-07T07:21:30.664Z,7.05
2019-06-07T07:24:31.915Z,7.17
2019-06-07T07:27:55.395Z,6.80
2019-06-07T07:30:57.381Z,7.08
2019-06-07T07:37:03.943Z,7.08
2019-06-07T07:40:54.881Z,6.92
2019-06-07T07:43:10.929Z,7.20
2019-06-07T07:46:29.798Z,6.65
2019-06-07T07:49:15.661Z,6.45
2019-06-07T07:52:16.909Z,6.17
2019-06-07T07:55:18.330Z,6.42
2019-06-07T07:58:19.577Z,6.17
2019-06-07T08:01:20.831Z,6.28
2019-06-07T08:04:39.719Z,6.08
2019-06-07T08:07:25.163Z,5.92
2019-06-07T08:10:26.617Z,6.25
2019-06-07T08:13:28.114Z,5.70
2019-06-07T08:16:30.701Z,6.00
2019-06-07T08:19:32.096Z,5.87
2019-06-07T08:22:35.333Z,5.33
2019-06-07T08:25:36.617Z,5.85
2019-06-07T08:28:38.561Z,6.08
2019-06-07T08:31:40.197Z,6.28
2019-06-07T08:34:42.739Z,5.90
2019-06-07T08:38:14.816Z,5.67
2019-06-07T08:40:53.660Z,6.30
2019-06-07T08:43:53.212Z,6.00
2019-06-07T08:47:13.956Z,6.85
2019-06-07T08:50:04.370Z,5.67
2019-06-07T08:53:11.544Z,5.70
2019-06-07T08:56:09.853Z,5.97
2019-06-07T08:59:11.383Z,6.15
2019-06-07T09:02:23.228Z,6.20
2019-06-07T09:05:14.250Z,6.50
2019-06-07T09:08:29.072Z,6.70
2019-06-07T09:11:18.585Z,6.40
2019-06-07T09:14:19.958Z,6.28
2019-06-07T09:17:22.496Z,6.05
2019-06-07T09:20:45.314Z,5.65
2019-06-07T09:23:46.557Z,5.33
2019-06-07T09:26:49.855Z,6.30
2019-06-07T09:29:51.295Z,5.50
2019-06-07T09:32:53.310Z,5.08
2019-06-07T09:35:56.209Z,5.37
2019-06-07T09:39:02.571Z,5.00
2019-06-07T09:42:08.384Z,5.17
2019-06-07T09:45:08.931Z,5.05
2019-06-07T09:48:13.823Z,5.35
2019-06-07T09:51:19.734Z,6.00
2019-06-07T09:55:02.340Z,6.85
2019-06-07T09:57:19.137Z,5.70
2019-06-07T10:00:39.893Z,5.12
2019-06-07T10:03:25.854Z,5.40
2019-06-07T10:06:27.257Z,5.30
2019-06-07T10:12:31.863Z,5.17
2019-06-07T10:15:33.121Z,4.72
2019-06-07T10:18:34.532Z,5.25
2019-06-07T10:21:35.943Z,5.28
2019-06-07T10:24:37.193Z,5.20
2019-06-07T10:27:38.553Z,4.92
2019-06-07T10:30:40.700Z,4.50
2019-06-07T10:33:44.200Z,5.53
2019-06-07T10:36:45.346Z,5.17
2019-06-07T10:39:48.949Z,4.47
2019-06-07T10:42:50.029Z,4.65
2019-06-07T10:45:51.321Z,4.45
2019-06-07T10:48:52.562Z,4.65
2019-06-07T10:51:53.937Z,5.05
2019-06-07T10:54:55.175Z,5.08
2019-06-07T10:57:56.471Z,4.80
2019-06-07T11:00:57.828Z,4.50
2019-06-07T11:03:59.106Z,4.08
2019-06-07T11:07:00.389Z,4.30
2019-06-07T11:10:11.689Z,4.37
2019-06-07T11:13:10.392Z,4.30
2019-06-07T11:16:13.082Z,4.20
2019-06-07T11:19:17.808Z,4.40
2019-06-07T11:22:18.593Z,4.62
2019-06-07T11:25:20.326Z,4.50
2019-06-07T11:28:21.590Z,4.40
2019-06-07T11:31:23.042Z,4.33
2019-06-07T11:34:24.857Z,4.37
2019-06-07T11:37:26.092Z,3.67
2019-06-07T11:40:35.039Z,3.77
2019-06-07T11:43:30.982Z,4.35
2019-06-07T11:46:32.362Z,3.70
2019-06-07T11:49:33.975Z,4.05
2019-06-07T11:52:35.345Z,3.92
2019-06-07T11:55:37.193Z,3.77
2019-06-07T11:58:38.661Z,3.77
2019-06-07T12:01:40.127Z,3.77
2019-06-07T12:04:41.393Z,4.12
2019-06-07T12:07:42.647Z,3.87
2019-06-07T12:10:44.054Z,4.12
2019-06-07T12:13:45.407Z,3.90
2019-06-07T12:16:47.746Z,3.80
2019-06-07T12:19:49.077Z,3.75
2019-06-07T12:22:51.016Z,4.12
2019-06-07T12:25:52.982Z,3.77
2019-06-07T12:28:54.296Z,4.20
2019-06-07T12:31:55.638Z,4.08
2019-06-07T12:34:56.906Z,3.85
2019-06-07T12:38:01.115Z,3.55
2019-06-07T12:41:03.530Z,3.50
2019-06-07T12:44:05.195Z,3.40
2019-06-07T12:47:06.529Z,3.35
2019-06-07T12:50:09.094Z,3.42
2019-06-07T12:53:10.770Z,3.10
2019-06-07T12:56:12.006Z,3.35
2019-06-07T12:59:13.889Z,3.30
2019-06-07T13:02:16.409Z,3.40
2019-06-07T13:05:19.829Z,3.40
2019-06-07T13:08:22.039Z,3.47
2019-06-07T13:11:29.588Z,3.55
2019-06-07T13:14:28.510Z,3.10
2019-06-07T13:17:29.963Z,3.30
2019-06-07T13:20:33.602Z,3.50
2019-06-07T13:23:35.483Z,3.50
2019-06-07T13:26:38.229Z,5.10
2019-06-07T13:29:40.008Z,4.22
2019-06-07T13:32:41.378Z,3.25
2019-06-07T13:35:46.918Z,3.42
2019-06-07T13:38:48.929Z,3.22
2019-06-07T13:41:52.942Z,3.45
2019-06-07T13:44:54.729Z,3.60
2019-06-07T13:47:56.327Z,3.60
2019-06-07T13:50:59.126Z,4.60
2019-06-07T13:54:01.345Z,3.87
2019-06-07T13:57:05.016Z,3.90
2019-06-07T14:00:11.215Z,3.85
2019-06-07T14:03:13.178Z,3.80
2019-06-07T14:06:18.956Z,4.42
2019-06-07T14:09:21.214Z,4.03
2019-06-07T14:12:24.158Z,3.95
2019-06-07T14:15:26.479Z,3.75
2019-06-07T14:18:28.743Z,3.98
2019-06-07T14:21:35.592Z,3.62
2019-06-07T14:24:37.746Z,4.08
2019-06-07T14:27:41.057Z,3.90
2019-06-07T14:30:42.872Z,4.20
2019-06-07T14:33:44.154Z,4.08
2019-06-07T14:36:45.815Z,4.17
2019-06-07T14:39:48.604Z,4.75
2019-06-07T14:42:50.206Z,5.62
2019-06-07T14:45:52.385Z,5.67
2019-06-07T14:48:57.063Z,4.95
2019-06-07T14:51:58.581Z,5.72
2019-06-07T14:55:00.206Z,5.85
2019-06-07T14:58:01.989Z,5.67
2019-06-07T15:01:03.692Z,5.40
2019-06-07T15:04:05.132Z,5.55
2019-06-07T15:07:08.576Z,5.70
2019-06-07T15:10:11.483Z,5.55
2019-06-07T15:13:12.901Z,5.95
2019-06-07T15:16:15.216Z,5.95
2019-06-07T15:19:16.463Z,6.10
2019-06-07T15:22:18.179Z,6.20
2019-06-07T15:25:19.983Z,6.08
2019-06-07T15:28:25.719Z,5.87
2019-06-07T15:31:27.912Z,5.87
2019-06-07T15:34:32.274Z,6.12
2019-06-07T15:37:34.570Z,7.00
2019-06-07T15:40:37.419Z,7.10
2019-06-07T15:43:39.375Z,7.00
2019-06-07T15:46:44.294Z,7.90
2019-06-07T15:49:48.005Z,7.22
2019-06-07T15:52:54.436Z,7.92
2019-06-07T15:55:56.776Z,7.08
2019-06-07T15:58:58.185Z,7.50
2019-06-07T16:01:59.749Z,6.60
2019-06-07T16:05:01.183Z,6.62
2019-06-07T16:08:04.180Z,6.47
2019-06-07T16:11:05.618Z,6.60
2019-06-07T16:14:07.105Z,6.25
2019-06-07T16:17:08.488Z,6.90
2019-06-07T16:20:10.249Z,6.83
2019-06-07T16:23:12.383Z,7.28
2019-06-07T16:26:14.530Z,7.20
2019-06-07T16:29:16.134Z,7.28
2019-06-07T16:32:17.502Z,7.17
2019-06-07T16:35:19.679Z,7.83
2019-06-07T16:38:21.123Z,8.40
2019-06-07T16:41:23.091Z,8.08
2019-06-07T16:44:25.508Z,8.50
2019-06-07T16:47:27.368Z,8.78
2019-06-07T16:50:28.842Z,9.10
2019-06-07T16:53:30.902Z,9.20
2019-06-07T16:56:32.575Z,9.50
2019-06-07T16:59:34.334Z,10.08
2019-06-07T17:02:36.071Z,9.93
2019-06-07T17:05:37.803Z,9.58
2019-06-07T17:08:40.154Z,9.75
2019-06-07T17:11:42.333Z,9.80
2019-06-07T17:14:44.643Z,9.70
2019-06-07T17:17:47.200Z,10.35
2019-06-07T17:20:49.568Z,10.35
2019-06-07T17:23:52.520Z,9.95
2019-06-07T17:26:55.639Z,10.82
2019-06-07T17:30:00.701Z,11.55
2019-06-07T17:33:04.055Z,12.07
2019-06-07T17:36:06.118Z,11.55
2019-06-07T17:39:09.535Z,11.03
2019-06-07T17:42:12.831Z,12.15
2019-06-07T17:45:15.858Z,11.88
2019-06-07T17:48:24.001Z,12.18
2019-06-07T17:51:28.191Z,11.55
2019-06-07T17:54:31.632Z,11.25
2019-06-07T17:57:35.347Z,11.50
2019-06-07T18:00:44.644Z,10.85
2019-06-07T18:03:47.080Z,11.22
2019-06-07T18:06:51.490Z,11.30
2019-06-07T18:09:55.374Z,11.35
2019-06-07T18:12:57.700Z,11.65
2019-06-07T18:15:59.935Z,12.50
2019-06-07T18:19:03.171Z,12.23
2019-06-07T18:22:06.101Z,12.90
2019-06-07T18:25:09.058Z,13.13
2019-06-07T18:28:12.206Z,12.88
2019-06-07T18:31:15.706Z,13.72
2019-06-07T18:34:19.506Z,13.90
2019-06-07T18:37:25.073Z,13.75
2019-06-07T18:40:27.633Z,13.45
2019-06-07T18:43:33.309Z,14.20
2019-06-07T18:46:36.235Z,13.65
2019-06-07T18:49:38.602Z,14.40
2019-06-07T18:52:43.059Z,14.70
2019-06-07T18:55:44.630Z,13.95
2019-06-07T18:58:47.116Z,14.95
2019-06-07T19:01:50.006Z,15.05
2019-06-07T19:04:52.268Z,16.20
2019-06-07T19:07:54.706Z,15.68
2019-06-07T19:10:56.904Z,15.98
2019-06-07T19:13:59.332Z,16.57
2019-06-07T19:17:01.440Z,17.55
2019-06-07T19:20:07.943Z,17.65
2019-06-07T19:23:12.756Z,17.80
2019-06-07T19:26:14.951Z,16.55
2019-06-07T19:29:18.506Z,15.38
2019-06-07T19:32:21.170Z,15.68
2019-06-07T19:35:23.280Z,16.15
2019-06-07T19:38:25.100Z,15.95
2019-06-07T19:41:26.961Z,17.40
2019-06-07T19:44:28.888Z,17.65
2019-06-07T19:47:30.994Z,17.67
2019-06-07T19:50:32.730Z,17.50
2019-06-07T19:53:34.867Z,17.95
2019-06-07T19:56:38.730Z,18.92
2019-06-07T19:59:40.650Z,19.20
2019-06-07T20:02:42.372Z,20.72
2019-06-07T20:05:45.142Z,20.92
2019-06-07T20:08:47.066Z,20.02
2019-06-07T20:11:48.555Z,22.50
2019-06-07T20:14:53.739Z,21.82
2019-06-07T20:17:55.092Z,19.52
2019-06-07T20:21:02.610Z,21.17
2019-06-07T20:24:22.800Z,21.80
2019-06-07T20:27:08.559Z,20.95
2019-06-07T20:30:11.457Z,24.15
2019-06-07T20:33:12.706Z,24.20
2019-06-07T20:36:14.330Z,23.50
2019-06-07T20:39:15.679Z,24.25
2019-06-07T20:42:17.082Z,21.87
2019-06-07T20:45:32.584Z,22.82
2019-06-07T20:48:21.775Z,23.98
2019-06-07T20:51:23.007Z,21.45
2019-06-07T20:54:24.654Z,26.68
2019-06-07T20:57:26.032Z,21.45
2019-06-07T21:00:27.839Z,23.92
2019-06-07T21:03:29.090Z,24.20
2019-06-07T21:06:30.855Z,21.25
2019-06-07T21:09:32.458Z,24.45
2019-06-07T21:12:33.759Z,24.63
2019-06-07T21:15:47.949Z,25.75
2019-06-07T21:18:39.180Z,26.52
2019-06-07T21:21:40.612Z,24.77
2019-06-07T21:24:41.977Z,23.55
2019-06-07T21:27:43.313Z,23.65
2019-06-07T21:30:44.701Z,26.35
2019-06-07T21:33:46.567Z,29.20
2019-06-07T21:36:48.171Z,26.27
2019-06-07T21:39:50.039Z,24.63
2019-06-07T21:42:51.842Z,23.27
2019-06-07T21:46:04.692Z,24.40
2019-06-07T21:48:56.809Z,22.77
2019-06-07T21:51:58.293Z,24.02
2019-06-07T21:54:59.528Z,27.40
2019-06-07T21:58:01.162Z,27.82
2019-06-07T22:01:09.994Z,25.45
2019-06-07T22:04:11.809Z,23.52
2019-06-07T22:07:13.660Z,25.72
2019-06-07T22:10:15.407Z,25.70
2019-06-07T22:13:16.715Z,24.77
2019-06-07T22:16:28.613Z,24.80
2019-06-07T22:19:21.227Z,28.75
2019-06-07T22:22:22.857Z,25.08
2019-06-07T22:25:25.056Z,25.55
2019-06-07T22:28:26.454Z,24.75
2019-06-07T22:31:31.017Z,24.15
2019-06-07T22:34:34.115Z,25.55
2019-06-07T22:37:35.377Z,23.62
2019-06-07T22:40:36.619Z,24.43
2019-06-07T22:43:37.918Z,22.80
2019-06-07T22:46:41.073Z,26.97
2019-06-07T22:49:42.517Z,27.73
2019-06-07T22:52:43.748Z,22.13
2019-06-07T22:55:47.061Z,30.97
2019-06-07T22:58:48.317Z,29.48
2019-06-07T23:01:49.571Z,24.87
2019-06-07T23:04:50.834Z,26.23
2019-06-07T23:07:52.238Z,25.40
2019-06-07T23:10:53.599Z,25.82
2019-06-07T23:13:54.965Z,26.70
2019-06-07T23:16:56.412Z,24.70
2019-06-07T23:19:57.891Z,24.40
2019-06-07T23:23:01.077Z,29.02
2019-06-07T23:26:02.560Z,29.15
2019-06-07T23:29:04.425Z,25.60
2019-06-07T23:32:05.722Z,26.10
2019-06-07T23:35:07.068Z,32.03
2019-06-07T23:38:08.338Z,33.65
2019-06-07T23:41:09.605Z,29.30
2019-06-07T23:44:13.305Z,25.50
2019-06-07T23:47:16.988Z,29.20
2019-06-07T23:50:17.988Z,23.32
2019-06-07T23:53:19.948Z,26.37
2019-06-07T23:56:23.279Z,31.02
2019-06-07T23:59:24.615Z,31.62
